sensor_id;sensor_type;location;lat;lon;timestamp;pressure;altitude;pressure_sealevel;temperature;humidity
48035;BME280;33812;46.480;6.834;2023-03-21T00:00:30;93854.06;;;19.98;37.98
48035;BME280;33812;46.480;6.834;2023-03-21T00:04:32;93864.34;;;19.98;38.24
48035;BME280;33812;46.480;6.834;2023-03-21T00:08:34;93850.09;;;19.99;38.31
48035;BME280;33812;46.480;6.834;2023-03-21T00:12:38;93857.19;;;19.43;37.84
48035;BME280;33812;46.480;6.834;2023-03-21T00:16:40;93852.03;;;19.45;37.75
48035;BME280;33812;46.480;6.834;2023-03-21T00:20:55;93858.03;;;19.40;37.64
48035;BME280;33812;46.480;6.834;2023-03-21T00:24:57;93848.13;;;19.63;38.49
48035;BME280;33812;46.480;6.834;2023-03-21T00:29:01;93847.38;;;19.42;38.33
48035;BME280;33812;46.480;6.834;2023-03-21T00:33:03;93848.13;;;19.22;38.66
48035;BME280;33812;46.480;6.834;2023-03-21T00:37:04;93843.19;;;19.33;38.11
48035;BME280;33812;46.480;6.834;2023-03-21T00:41:10;93833.38;;;19.32;38.45
48035;BME280;33812;46.480;6.834;2023-03-21T00:45:13;93828.84;;;19.63;38.29
48035;BME280;33812;46.480;6.834;2023-03-21T00:49:16;93831.94;;;19.44;37.90
48035;BME280;33812;46.480;6.834;2023-03-21T00:53:20;93830.94;;;19.75;37.98
48035;BME280;33812;46.480;6.834;2023-03-21T00:57:22;93832.09;;;19.57;37.80
48035;BME280;33812;46.480;6.834;2023-03-21T01:01:25;93823.06;;;19.37;38.05
48035;BME280;33812;46.480;6.834;2023-03-21T01:05:33;93824.34;;;19.69;37.95
48035;BME280;33812;46.480;6.834;2023-03-21T01:09:53;93817.56;;;19.74;37.81
48035;BME280;33812;46.480;6.834;2023-03-21T01:13:55;93802.16;;;19.76;37.71
48035;BME280;33812;46.480;6.834;2023-03-21T01:17:58;93804.41;;;19.24;37.57
48035;BME280;33812;46.480;6.834;2023-03-21T01:22:00;93802.28;;;19.52;38.45
48035;BME280;33812;46.480;6.834;2023-03-21T01:26:02;93798.59;;;19.76;37.70
48035;BME280;33812;46.480;6.834;2023-03-21T01:30:05;93795.09;;;19.75;37.59
48035;BME280;33812;46.480;6.834;2023-03-21T01:34:09;93792.22;;;19.79;38.11
48035;BME280;33812;46.480;6.834;2023-03-21T01:38:12;93797.38;;;19.60;36.53
48035;BME280;33812;46.480;6.834;2023-03-21T01:42:14;93794.81;;;19.69;37.72
48035;BME280;33812;46.480;6.834;2023-03-21T01:46:34;93795.34;;;19.81;37.50
48035;BME280;33812;46.480;6.834;2023-03-21T01:50:41;93787.94;;;19.78;37.16
48035;BME280;33812;46.480;6.834;2023-03-21T01:54:43;93794.59;;;19.60;37.85
48035;BME280;33812;46.480;6.834;2023-03-21T01:58:47;93798.03;;;19.27;38.49
48035;BME280;33812;46.480;6.834;2023-03-21T02:02:50;93804.53;;;19.57;37.53
48035;BME280;33812;46.480;6.834;2023-03-21T02:06:58;93809.91;;;19.44;37.92
48035;BME280;33812;46.480;6.834;2023-03-21T02:11:03;93800.56;;;19.59;37.15
48035;BME280;33812;46.480;6.834;2023-03-21T02:15:07;93809.41;;;19.50;37.33
48035;BME280;33812;46.480;6.834;2023-03-21T02:19:23;93807.94;;;19.25;37.71
48035;BME280;33812;46.480;6.834;2023-03-21T02:28:18;93808.84;;;19.18;37.76
48035;BME280;33812;46.480;6.834;2023-03-21T02:32:27;93806.72;;;19.46;37.54
48035;BME280;33812;46.480;6.834;2023-03-21T02:37:03;93803.28;;;19.42;37.26
48035;BME280;33812;46.480;6.834;2023-03-21T02:41:12;93796.75;;;19.52;37.38
48035;BME280;33812;46.480;6.834;2023-03-21T02:45:20;93800.22;;;19.16;37.07
48035;BME280;33812;46.480;6.834;2023-03-21T02:49:26;93792.50;;;19.48;37.42
48035;BME280;33812;46.480;6.834;2023-03-21T02:53:35;93793.31;;;19.65;36.83
48035;BME280;33812;46.480;6.834;2023-03-21T02:57:40;93785.75;;;19.12;36.76
48035;BME280;33812;46.480;6.834;2023-03-21T03:01:43;93788.06;;;19.33;37.53
48035;BME280;33812;46.480;6.834;2023-03-21T03:05:47;93786.41;;;19.56;37.55
48035;BME280;33812;46.480;6.834;2023-03-21T03:10:13;93786.56;;;19.49;37.21
48035;BME280;33812;46.480;6.834;2023-03-21T03:14:37;93790.91;;;19.67;37.30
48035;BME280;33812;46.480;6.834;2023-03-21T03:18:49;93782.69;;;19.47;37.00
48035;BME280;33812;46.480;6.834;2023-03-21T03:22:57;93782.88;;;19.19;36.49
48035;BME280;33812;46.480;6.834;2023-03-21T03:27:05;93779.25;;;19.02;36.65
48035;BME280;33812;46.480;6.834;2023-03-21T03:31:10;93779.94;;;19.47;37.43
48035;BME280;33812;46.480;6.834;2023-03-21T03:35:16;93771.25;;;19.48;36.82
48035;BME280;33812;46.480;6.834;2023-03-21T03:39:18;93775.84;;;19.35;37.19
48035;BME280;33812;46.480;6.834;2023-03-21T03:43:28;93772.88;;;19.45;37.32
48035;BME280;33812;46.480;6.834;2023-03-21T03:47:37;93779.28;;;19.59;37.00
48035;BME280;33812;46.480;6.834;2023-03-21T03:51:48;93775.75;;;19.59;36.88
48035;BME280;33812;46.480;6.834;2023-03-21T03:55:52;93771.75;;;19.60;36.80
48035;BME280;33812;46.480;6.834;2023-03-21T03:59:57;93780.78;;;19.43;36.50
48035;BME280;33812;46.480;6.834;2023-03-21T04:04:00;93780.63;;;19.14;37.31
48035;BME280;33812;46.480;6.834;2023-03-21T04:08:02;93776.00;;;19.27;36.89
48035;BME280;33812;46.480;6.834;2023-03-21T04:12:06;93778.41;;;19.25;36.99
48035;BME280;33812;46.480;6.834;2023-03-21T04:16:10;93773.59;;;19.29;36.89
48035;BME280;33812;46.480;6.834;2023-03-21T04:20:12;93778.63;;;19.35;37.29
48035;BME280;33812;46.480;6.834;2023-03-21T04:24:14;93778.63;;;19.35;37.17
48035;BME280;33812;46.480;6.834;2023-03-21T04:28:16;93783.47;;;19.47;36.87
48035;BME280;33812;46.480;6.834;2023-03-21T04:32:19;93786.06;;;19.54;36.96
48035;BME280;33812;46.480;6.834;2023-03-21T04:36:24;93781.66;;;19.00;36.90
48035;BME280;33812;46.480;6.834;2023-03-21T04:40:26;93784.59;;;19.09;36.69
48035;BME280;33812;46.480;6.834;2023-03-21T04:44:28;93787.34;;;19.09;37.00
48035;BME280;33812;46.480;6.834;2023-03-21T04:48:31;93786.03;;;19.38;37.19
48035;BME280;33812;46.480;6.834;2023-03-21T04:52:33;93784.47;;;19.16;36.04
48035;BME280;33812;46.480;6.834;2023-03-21T04:56:35;93784.88;;;18.94;36.33
48035;BME280;33812;46.480;6.834;2023-03-21T05:00:37;93778.53;;;19.18;36.73
48035;BME280;33812;46.480;6.834;2023-03-21T05:04:41;93774.78;;;19.28;36.47
48035;BME280;33812;46.480;6.834;2023-03-21T05:08:42;93777.75;;;18.77;36.50
48035;BME280;33812;46.480;6.834;2023-03-21T05:12:44;93770.09;;;18.84;36.29
48035;BME280;33812;46.480;6.834;2023-03-21T05:16:46;93768.72;;;19.37;36.98
48035;BME280;33812;46.480;6.834;2023-03-21T05:20:53;93763.25;;;19.33;36.50
48035;BME280;33812;46.480;6.834;2023-03-21T05:24:55;93767.53;;;19.38;36.63
48035;BME280;33812;46.480;6.834;2023-03-21T05:28:57;93774.56;;;19.39;36.64
48035;BME280;33812;46.480;6.834;2023-03-21T05:32:59;93773.97;;;19.31;36.19
48035;BME280;33812;46.480;6.834;2023-03-21T05:37:02;93770.13;;;19.45;36.04
48035;BME280;33812;46.480;6.834;2023-03-21T05:41:04;93772.09;;;19.45;36.41
48035;BME280;33812;46.480;6.834;2023-03-21T05:45:07;93779.28;;;19.59;36.54
48035;BME280;33812;46.480;6.834;2023-03-21T05:49:09;93776.03;;;18.63;35.79
48035;BME280;33812;46.480;6.834;2023-03-21T05:53:13;93784.53;;;18.72;36.95
48035;BME280;33812;46.480;6.834;2023-03-21T05:57:15;93784.75;;;19.02;36.81
48035;BME280;33812;46.480;6.834;2023-03-21T06:01:18;93778.66;;;19.11;37.40
48035;BME280;33812;46.480;6.834;2023-03-21T06:05:20;93779.13;;;19.29;37.37
48035;BME280;33812;46.480;6.834;2023-03-21T06:09:23;93791.28;;;19.12;36.77
48035;BME280;33812;46.480;6.834;2023-03-21T06:13:25;93790.00;;;19.37;37.12
48035;BME280;33812;46.480;6.834;2023-03-21T06:17:27;93797.59;;;19.08;36.69
48035;BME280;33812;46.480;6.834;2023-03-21T06:21:29;93791.88;;;19.19;37.67
48035;BME280;33812;46.480;6.834;2023-03-21T06:25:32;93792.56;;;19.44;37.21
48035;BME280;33812;46.480;6.834;2023-03-21T06:29:34;93793.00;;;19.42;37.27
48035;BME280;33812;46.480;6.834;2023-03-21T06:33:36;93789.34;;;19.08;34.80
48035;BME280;33812;46.480;6.834;2023-03-21T06:37:37;93787.72;;;18.91;36.30
48035;BME280;33812;46.480;6.834;2023-03-21T06:41:41;93788.50;;;19.32;36.70
48035;BME280;33812;46.480;6.834;2023-03-21T06:45:43;93792.50;;;19.48;36.62
48035;BME280;33812;46.480;6.834;2023-03-21T06:49:44;93789.75;;;19.48;36.55
48035;BME280;33812;46.480;6.834;2023-03-21T06:53:46;93799.16;;;19.50;36.94
48035;BME280;33812;46.480;6.834;2023-03-21T06:57:50;93794.72;;;19.36;36.81
48035;BME280;33812;46.480;6.834;2023-03-21T07:01:52;93802.28;;;19.12;37.03
48035;BME280;33812;46.480;6.834;2023-03-21T07:05:54;93802.81;;;19.03;37.09
48035;BME280;33812;46.480;6.834;2023-03-21T07:09:55;93812.09;;;19.13;37.56
48035;BME280;33812;46.480;6.834;2023-03-21T07:13:58;93817.25;;;18.66;37.66
48035;BME280;33812;46.480;6.834;2023-03-21T07:18:00;93817.56;;;18.92;39.07
48035;BME280;33812;46.480;6.834;2023-03-21T07:22:02;93815.88;;;19.23;38.25
48035;BME280;33812;46.480;6.834;2023-03-21T07:26:05;93816.59;;;19.03;38.23
48035;BME280;33812;46.480;6.834;2023-03-21T07:30:10;93814.34;;;18.97;38.12
48035;BME280;33812;46.480;6.834;2023-03-21T07:34:12;93819.59;;;18.68;38.48
48035;BME280;33812;46.480;6.834;2023-03-21T07:38:15;93826.53;;;18.52;38.20
48035;BME280;33812;46.480;6.834;2023-03-21T07:42:17;93827.94;;;18.84;38.36
48035;BME280;33812;46.480;6.834;2023-03-21T07:46:21;93833.09;;;19.27;38.67
48035;BME280;33812;46.480;6.834;2023-03-21T07:50:22;93835.50;;;19.45;38.93
48035;BME280;33812;46.480;6.834;2023-03-21T07:54:24;93833.22;;;19.40;38.08
48035;BME280;33812;46.480;6.834;2023-03-21T07:58:28;93836.97;;;19.29;38.40
48035;BME280;33812;46.480;6.834;2023-03-21T08:02:31;93836.75;;;19.61;38.27
48035;BME280;33812;46.480;6.834;2023-03-21T08:06:33;93833.31;;;19.36;37.58
48035;BME280;33812;46.480;6.834;2023-03-21T08:10:35;93840.16;;;19.48;37.22
48035;BME280;33812;46.480;6.834;2023-03-21T08:14:38;93842.19;;;19.44;37.03
48035;BME280;33812;46.480;6.834;2023-03-21T08:18:41;93830.16;;;19.54;36.44
48035;BME280;33812;46.480;6.834;2023-03-21T08:22:43;93833.09;;;19.47;36.42
48035;BME280;33812;46.480;6.834;2023-03-21T08:26:45;93832.22;;;19.50;36.11
48035;BME280;33812;46.480;6.834;2023-03-21T08:30:47;93827.47;;;19.71;36.45
48035;BME280;33812;46.480;6.834;2023-03-21T08:34:51;93820.22;;;19.77;36.33
48035;BME280;33812;46.480;6.834;2023-03-21T08:38:52;93815.50;;;19.78;35.88
48035;BME280;33812;46.480;6.834;2023-03-21T08:42:56;93815.69;;;19.87;36.26
48035;BME280;33812;46.480;6.834;2023-03-21T08:46:58;93819.66;;;19.86;36.39
48035;BME280;33812;46.480;6.834;2023-03-21T08:51:01;93821.75;;;19.99;36.25
48035;BME280;33812;46.480;6.834;2023-03-21T08:55:03;93814.59;;;20.01;36.33
48035;BME280;33812;46.480;6.834;2023-03-21T08:59:05;93821.31;;;20.00;35.25
48035;BME280;33812;46.480;6.834;2023-03-21T09:03:09;93819.75;;;19.99;35.24
48035;BME280;33812;46.480;6.834;2023-03-21T09:07:12;93818.47;;;20.04;34.86
48035;BME280;33812;46.480;6.834;2023-03-21T09:11:16;93816.13;;;20.02;35.12
48035;BME280;33812;46.480;6.834;2023-03-21T09:15:18;93817.19;;;20.09;35.00
48035;BME280;33812;46.480;6.834;2023-03-21T09:19:21;93826.19;;;20.13;35.59
48035;BME280;33812;46.480;6.834;2023-03-21T09:23:24;93821.38;;;20.17;35.23
48035;BME280;33812;46.480;6.834;2023-03-21T09:27:26;93817.81;;;20.16;35.45
48035;BME280;33812;46.480;6.834;2023-03-21T09:31:28;93815.75;;;20.21;35.50
48035;BME280;33812;46.480;6.834;2023-03-21T09:35:30;93812.13;;;20.24;37.26
48035;BME280;33812;46.480;6.834;2023-03-21T09:39:33;93824.28;;;20.26;37.69
48035;BME280;33812;46.480;6.834;2023-03-21T09:43:44;93821.19;;;20.24;37.38
48035;BME280;33812;46.480;6.834;2023-03-21T09:47:50;93819.53;;;20.27;37.49
48035;BME280;33812;46.480;6.834;2023-03-21T09:51:54;93809.53;;;20.33;37.41
48035;BME280;33812;46.480;6.834;2023-03-21T09:55:58;93808.78;;;20.33;36.45
48035;BME280;33812;46.480;6.834;2023-03-21T10:00:03;93815.41;;;20.35;37.42
48035;BME280;33812;46.480;6.834;2023-03-21T10:04:13;93803.41;;;20.42;37.27
48035;BME280;33812;46.480;6.834;2023-03-21T10:08:20;93793.94;;;20.43;37.38
48035;BME280;33812;46.480;6.834;2023-03-21T10:12:25;93786.31;;;20.47;37.20
48035;BME280;33812;46.480;6.834;2023-03-21T10:16:31;93787.34;;;20.53;36.99
48035;BME280;33812;46.480;6.834;2023-03-21T10:20:35;93777.84;;;20.54;37.53
48035;BME280;33812;46.480;6.834;2023-03-21T10:24:38;93770.25;;;20.59;38.16
48035;BME280;33812;46.480;6.834;2023-03-21T10:28:41;93771.47;;;20.58;36.93
48035;BME280;33812;46.480;6.834;2023-03-21T10:32:44;93779.66;;;20.61;37.49
48035;BME280;33812;46.480;6.834;2023-03-21T10:36:46;93771.72;;;20.63;37.11
48035;BME280;33812;46.480;6.834;2023-03-21T10:40:47;93769.31;;;20.65;37.24
48035;BME280;33812;46.480;6.834;2023-03-21T10:44:52;93771.19;;;20.69;36.27
48035;BME280;33812;46.480;6.834;2023-03-21T10:48:54;93776.28;;;20.70;36.80
48035;BME280;33812;46.480;6.834;2023-03-21T10:52:58;93772.66;;;20.73;36.61
48035;BME280;33812;46.480;6.834;2023-03-21T10:57:04;93765.91;;;20.74;36.71
48035;BME280;33812;46.480;6.834;2023-03-21T11:01:10;93772.97;;;20.75;36.39
48035;BME280;33812;46.480;6.834;2023-03-21T11:05:19;93767.81;;;20.77;36.90
48035;BME280;33812;46.480;6.834;2023-03-21T11:09:23;93765.81;;;20.78;36.29
48035;BME280;33812;46.480;6.834;2023-03-21T11:13:32;93772.00;;;20.82;37.11
48035;BME280;33812;46.480;6.834;2023-03-21T11:17:36;93762.97;;;20.82;37.49
48035;BME280;33812;46.480;6.834;2023-03-21T11:21:39;93765.28;;;20.83;36.93
48035;BME280;33812;46.480;6.834;2023-03-21T11:25:41;93764.84;;;20.85;37.21
48035;BME280;33812;46.480;6.834;2023-03-21T11:29:45;93764.41;;;20.86;37.17
48035;BME280;33812;46.480;6.834;2023-03-21T11:33:51;93761.41;;;20.81;37.50
48035;BME280;33812;46.480;6.834;2023-03-21T11:37:55;93750.44;;;20.77;36.43
48035;BME280;33812;46.480;6.834;2023-03-21T11:41:57;93749.00;;;20.72;36.31
48035;BME280;33812;46.480;6.834;2023-03-21T11:46:04;93729.31;;;20.70;36.46
48035;BME280;33812;46.480;6.834;2023-03-21T11:50:28;93723.72;;;20.74;35.74
48035;BME280;33812;46.480;6.834;2023-03-21T11:54:39;93728.56;;;20.70;35.40
48035;BME280;33812;46.480;6.834;2023-03-21T11:59:12;93724.16;;;20.72;34.73
48035;BME280;33812;46.480;6.834;2023-03-21T12:08:00;93696.88;;;20.74;35.38
48035;BME280;33812;46.480;6.834;2023-03-21T12:12:14;93692.56;;;20.73;35.08
48035;BME280;33812;46.480;6.834;2023-03-21T12:16:33;93685.72;;;20.78;35.04
48035;BME280;33812;46.480;6.834;2023-03-21T12:20:43;93679.31;;;20.81;35.41
48035;BME280;33812;46.480;6.834;2023-03-21T12:24:52;93675.78;;;20.81;35.61
48035;BME280;33812;46.480;6.834;2023-03-21T12:29:08;93673.69;;;20.85;36.14
48035;BME280;33812;46.480;6.834;2023-03-21T12:33:35;93673.34;;;20.83;35.81
48035;BME280;33812;46.480;6.834;2023-03-21T12:37:52;93661.22;;;20.80;35.90
48035;BME280;33812;46.480;6.834;2023-03-21T12:42:05;93654.91;;;20.80;35.65
48035;BME280;33812;46.480;6.834;2023-03-21T12:46:15;93649.72;;;20.82;35.55
48035;BME280;33812;46.480;6.834;2023-03-21T12:50:23;93658.00;;;20.82;35.58
48035;BME280;33812;46.480;6.834;2023-03-21T12:54:29;93658.00;;;20.82;35.66
48035;BME280;33812;46.480;6.834;2023-03-21T12:58:40;93656.78;;;20.83;35.74
48035;BME280;33812;46.480;6.834;2023-03-21T13:02:49;93644.53;;;20.84;35.89
48035;BME280;33812;46.480;6.834;2023-03-21T13:06:53;93643.56;;;20.90;36.01
48035;BME280;33812;46.480;6.834;2023-03-21T13:10:59;93643.66;;;20.87;36.09
48035;BME280;33812;46.480;6.834;2023-03-21T13:19:42;93636.13;;;20.87;35.79
48035;BME280;33812;46.480;6.834;2023-03-21T13:23:57;93634.94;;;20.88;35.73
48035;BME280;33812;46.480;6.834;2023-03-21T13:28:01;93634.94;;;20.88;35.22
48035;BME280;33812;46.480;6.834;2023-03-21T13:32:15;93634.13;;;20.88;35.07
48035;BME280;33812;46.480;6.834;2023-03-21T13:36:23;93629.84;;;20.87;34.94
48035;BME280;33812;46.480;6.834;2023-03-21T13:40:27;93632.16;;;20.88;34.86
48035;BME280;33812;46.480;6.834;2023-03-21T13:44:34;93632.44;;;20.94;34.90
48035;BME280;33812;46.480;6.834;2023-03-21T13:53:10;93626.91;;;20.94;34.75
48035;BME280;33812;46.480;6.834;2023-03-21T13:57:36;93616.25;;;20.93;34.46
48035;BME280;33812;46.480;6.834;2023-03-21T14:01:56;93619.38;;;20.95;34.40
48035;BME280;33812;46.480;6.834;2023-03-21T14:05:58;93612.19;;;20.97;34.00
48035;BME280;33812;46.480;6.834;2023-03-21T14:10:03;93609.78;;;20.99;34.55
48035;BME280;33812;46.480;6.834;2023-03-21T14:14:08;93605.44;;;20.98;34.27
48035;BME280;33812;46.480;6.834;2023-03-21T14:23:14;93588.44;;;21.00;33.83
48035;BME280;33812;46.480;6.834;2023-03-21T14:27:18;93587.34;;;20.97;33.81
48035;BME280;33812;46.480;6.834;2023-03-21T14:31:20;93587.22;;;21.01;34.03
48035;BME280;33812;46.480;6.834;2023-03-21T14:35:23;93579.84;;;20.98;33.43
48035;BME280;33812;46.480;6.834;2023-03-21T14:39:29;93579.28;;;21.03;33.66
48035;BME280;33812;46.480;6.834;2023-03-21T14:43:30;93578.50;;;21.02;33.66
48035;BME280;33812;46.480;6.834;2023-03-21T14:47:33;93582.59;;;20.98;32.63
48035;BME280;33812;46.480;6.834;2023-03-21T14:51:36;93580.25;;;20.96;31.89
48035;BME280;33812;46.480;6.834;2023-03-21T14:55:43;93569.19;;;20.96;31.01
48035;BME280;33812;46.480;6.834;2023-03-21T14:59:47;93573.19;;;20.95;31.22
48035;BME280;33812;46.480;6.834;2023-03-21T15:03:50;93577.94;;;20.95;30.93
48035;BME280;33812;46.480;6.834;2023-03-21T15:07:54;93588.97;;;20.95;30.92
48035;BME280;33812;46.480;6.834;2023-03-21T15:11:58;93588.97;;;20.95;31.07
48035;BME280;33812;46.480;6.834;2023-03-21T15:16:01;93578.72;;;20.95;31.11
48035;BME280;33812;46.480;6.834;2023-03-21T15:20:03;93581.09;;;20.93;31.39
48035;BME280;33812;46.480;6.834;2023-03-21T15:24:11;93585.09;;;20.92;31.29
48035;BME280;33812;46.480;6.834;2023-03-21T15:28:16;93580.69;;;20.95;31.45
48035;BME280;33812;46.480;6.834;2023-03-21T15:32:21;93572.47;;;20.91;31.68
48035;BME280;33812;46.480;6.834;2023-03-21T15:36:26;93572.41;;;20.95;31.67
48035;BME280;33812;46.480;6.834;2023-03-21T15:40:31;93580.25;;;20.96;32.11
48035;BME280;33812;46.480;6.834;2023-03-21T15:44:34;93577.81;;;20.98;32.56
48035;BME280;33812;46.480;6.834;2023-03-21T15:48:36;93575.16;;;20.95;32.00
48035;BME280;33812;46.480;6.834;2023-03-21T15:52:38;93579.50;;;20.96;32.24
48035;BME280;33812;46.480;6.834;2023-03-21T15:56:41;93579.84;;;20.98;32.21
48035;BME280;33812;46.480;6.834;2023-03-21T16:00:48;93575.06;;;20.98;32.41
48035;BME280;33812;46.480;6.834;2023-03-21T16:04:56;93577.72;;;21.02;32.87
48035;BME280;33812;46.480;6.834;2023-03-21T16:09:05;93580.91;;;21.00;33.49
48035;BME280;33812;46.480;6.834;2023-03-21T16:13:10;93587.97;;;21.01;33.58
48035;BME280;33812;46.480;6.834;2023-03-21T16:17:21;93589.66;;;20.99;33.92
48035;BME280;33812;46.480;6.834;2023-03-21T16:21:29;93585.03;;;20.96;33.01
48035;BME280;33812;46.480;6.834;2023-03-21T16:25:40;93582.59;;;20.98;32.91
48035;BME280;33812;46.480;6.834;2023-03-21T16:29:46;93583.34;;;20.98;32.60
48035;BME280;33812;46.480;6.834;2023-03-21T16:33:50;93585.78;;;20.96;32.92
48035;BME280;33812;46.480;6.834;2023-03-21T16:38:03;93584.91;;;20.99;33.18
48035;BME280;33812;46.480;6.834;2023-03-21T16:42:05;93584.91;;;20.99;32.72
48035;BME280;33812;46.480;6.834;2023-03-21T16:46:12;93587.69;;;20.99;32.73
48035;BME280;33812;46.480;6.834;2023-03-21T16:50:22;93589.66;;;20.99;32.91
48035;BME280;33812;46.480;6.834;2023-03-21T16:54:27;93592.09;;;20.97;32.47
48035;BME280;33812;46.480;6.834;2023-03-21T16:58:28;93591.00;;;20.94;31.87
48035;BME280;33812;46.480;6.834;2023-03-21T17:02:30;93595.38;;;20.92;32.36
48035;BME280;33812;46.480;6.834;2023-03-21T17:06:38;93592.97;;;20.94;32.18
48035;BME280;33812;46.480;6.834;2023-03-21T17:10:41;93594.41;;;20.98;32.65
48035;BME280;33812;46.480;6.834;2023-03-21T17:14:43;93599.72;;;21.06;33.37
48035;BME280;33812;46.480;6.834;2023-03-21T17:18:46;93599.72;;;21.06;33.07
48035;BME280;33812;46.480;6.834;2023-03-21T17:22:49;93589.88;;;21.05;32.85
48035;BME280;33812;46.480;6.834;2023-03-21T17:26:51;93600.16;;;21.04;33.43
48035;BME280;33812;46.480;6.834;2023-03-21T17:30:53;93604.34;;;20.96;33.18
48035;BME280;33812;46.480;6.834;2023-03-21T17:34:56;93602.59;;;21.02;33.26
48035;BME280;33812;46.480;6.834;2023-03-21T17:38:59;93600.59;;;21.02;33.15
48035;BME280;33812;46.480;6.834;2023-03-21T17:43:01;93598.94;;;21.05;33.18
48035;BME280;33812;46.480;6.834;2023-03-21T17:47:03;93600.94;;;21.05;33.81
48035;BME280;33812;46.480;6.834;2023-03-21T17:51:05;93600.16;;;21.04;34.68
48035;BME280;33812;46.480;6.834;2023-03-21T17:55:09;93599.59;;;21.09;34.70
48035;BME280;33812;46.480;6.834;2023-03-21T17:59:12;93606.66;;;21.10;34.43
48035;BME280;33812;46.480;6.834;2023-03-21T18:03:14;93616.97;;;21.10;34.38
48035;BME280;33812;46.480;6.834;2023-03-21T18:07:16;93608.34;;;21.08;34.51
48035;BME280;33812;46.480;6.834;2023-03-21T18:11:21;93615.94;;;20.90;33.91
48035;BME280;33812;46.480;6.834;2023-03-21T18:15:34;93607.88;;;20.96;34.89
48035;BME280;33812;46.480;6.834;2023-03-21T18:19:36;93611.53;;;21.06;34.95
48035;BME280;33812;46.480;6.834;2023-03-21T18:23:39;93612.97;;;21.11;35.25
48035;BME280;33812;46.480;6.834;2023-03-21T18:27:42;93618.41;;;21.14;35.52
48035;BME280;33812;46.480;6.834;2023-03-21T18:31:44;93623.03;;;21.18;35.63
48035;BME280;33812;46.480;6.834;2023-03-21T18:35:46;93626.69;;;21.14;35.24
48035;BME280;33812;46.480;6.834;2023-03-21T18:39:47;93629.44;;;21.14;35.66
48035;BME280;33812;46.480;6.834;2023-03-21T18:43:51;93614.41;;;21.16;35.79
48035;BME280;33812;46.480;6.834;2023-03-21T18:47:53;93627.13;;;21.13;35.67
48035;BME280;33812;46.480;6.834;2023-03-21T18:51:55;93629.56;;;21.11;35.88
48035;BME280;33812;46.480;6.834;2023-03-21T18:55:56;93633.44;;;21.13;36.20
48035;BME280;33812;46.480;6.834;2023-03-21T19:00:00;93630.44;;;21.08;35.07
48035;BME280;33812;46.480;6.834;2023-03-21T19:04:09;93635.41;;;21.13;36.39
48035;BME280;33812;46.480;6.834;2023-03-21T19:08:11;93631.44;;;21.14;36.05
48035;BME280;33812;46.480;6.834;2023-03-21T19:12:13;93631.19;;;20.95;32.31
48035;BME280;33812;46.480;6.834;2023-03-21T19:16:16;93641.56;;;20.48;30.73
48035;BME280;33812;46.480;6.834;2023-03-21T19:20:18;93653.28;;;20.52;30.98
48035;BME280;33812;46.480;6.834;2023-03-21T19:24:20;93650.59;;;20.78;31.82
48035;BME280;33812;46.480;6.834;2023-03-21T19:28:22;93651.69;;;20.81;32.37
48035;BME280;33812;46.480;6.834;2023-03-21T19:32:25;93648.06;;;20.84;33.19
48035;BME280;33812;46.480;6.834;2023-03-21T19:36:27;93641.13;;;20.93;34.15
48035;BME280;33812;46.480;6.834;2023-03-21T19:40:28;93640.63;;;20.98;34.65
48035;BME280;33812;46.480;6.834;2023-03-21T19:44:30;93640.16;;;20.99;34.23
48035;BME280;33812;46.480;6.834;2023-03-21T19:48:34;93636.28;;;20.97;33.87
48035;BME280;33812;46.480;6.834;2023-03-21T19:52:37;93633.34;;;20.87;33.60
48035;BME280;33812;46.480;6.834;2023-03-21T19:56:40;93639.13;;;20.93;35.44
48035;BME280;33812;46.480;6.834;2023-03-21T20:00:42;93639.97;;;20.77;35.23
48035;BME280;33812;46.480;6.834;2023-03-21T20:04:46;93639.41;;;20.69;34.64
48035;BME280;33812;46.480;6.834;2023-03-21T20:08:48;93645.03;;;20.65;36.42
48035;BME280;33812;46.480;6.834;2023-03-21T20:12:51;93648.94;;;20.68;35.78
48035;BME280;33812;46.480;6.834;2023-03-21T20:16:53;93643.91;;;20.63;36.70
48035;BME280;33812;46.480;6.834;2023-03-21T20:20:57;93641.16;;;20.63;36.28
48035;BME280;33812;46.480;6.834;2023-03-21T20:24:59;93630.38;;;20.82;36.96
48035;BME280;33812;46.480;6.834;2023-03-21T20:29:14;93631.03;;;20.86;36.76
48035;BME280;33812;46.480;6.834;2023-03-21T20:33:22;93640.34;;;20.92;36.75
48035;BME280;33812;46.480;6.834;2023-03-21T20:37:25;93639.50;;;20.95;36.86
48035;BME280;33812;46.480;6.834;2023-03-21T20:41:27;93644.13;;;20.98;36.73
48035;BME280;33812;46.480;6.834;2023-03-21T20:45:30;93638.78;;;20.91;36.14
48035;BME280;33812;46.480;6.834;2023-03-21T20:49:32;93638.56;;;20.85;36.57
48035;BME280;33812;46.480;6.834;2023-03-21T20:53:38;93636.56;;;20.86;36.81
48035;BME280;33812;46.480;6.834;2023-03-21T20:57:41;93640.78;;;20.90;36.74
48035;BME280;33812;46.480;6.834;2023-03-21T21:01:43;93641.13;;;20.93;36.97
48035;BME280;33812;46.480;6.834;2023-03-21T21:05:46;93652.06;;;20.96;36.90
48035;BME280;33812;46.480;6.834;2023-03-21T21:09:49;93647.13;;;21.04;36.22
48035;BME280;33812;46.480;6.834;2023-03-21T21:13:52;93636.47;;;20.89;35.81
48035;BME280;33812;46.480;6.834;2023-03-21T21:17:55;93642.44;;;20.88;35.37
48035;BME280;33812;46.480;6.834;2023-03-21T21:22:01;93649.56;;;20.72;35.52
48035;BME280;33812;46.480;6.834;2023-03-21T21:26:12;93644.25;;;20.65;35.33
48035;BME280;33812;46.480;6.834;2023-03-21T21:30:15;93636.75;;;20.65;35.84
48035;BME280;33812;46.480;6.834;2023-03-21T21:34:19;93636.75;;;20.65;35.98
48035;BME280;33812;46.480;6.834;2023-03-21T21:38:21;93644.25;;;20.65;35.39
48035;BME280;33812;46.480;6.834;2023-03-21T21:42:29;93640.00;;;20.47;35.64
48035;BME280;33812;46.480;6.834;2023-03-21T21:46:31;93644.31;;;20.48;36.29
48035;BME280;33812;46.480;6.834;2023-03-21T21:50:33;93646.81;;;20.59;35.76
48035;BME280;33812;46.480;6.834;2023-03-21T21:54:35;93646.91;;;20.56;35.85
48035;BME280;33812;46.480;6.834;2023-03-21T21:58:50;93644.66;;;20.50;36.07